Latest Coastal Weather Observations for Broome

IDW60701

Issued at 7:43 pm WST Sunday 9 August 2020 (issued every 10 minutes, with the page automatically refreshed every 10 minutes)

About coastal observations | Map of coastal stations | Coastal observations for WA | Marine services | Other Formats
Station Details ID: 003003 Name: BROOME AIRPORT Lat: -17.95 Lon: 122.24 Height: 7.42 m
Data from the previous 72 hours. | See also: Recent months at Broome
Date/Time
WST
Wind Sea
Height
m
Swell Vis
km
Cloud Weather Temp
°C
Press
hPa
Rain since
9am
mm
Dir  Spd
kts
Gust
kts
Height
m
Period
s
Dir
09/07:30pm NW 7 9 - - - - 10 Clear - 22.6 1013.5 0.0
09/07:00pm NW 8 10 - - - - 10 - - 23.0 1013.4 0.0
09/06:30pm WNW 8 11 - - - - 10 - - 23.0 1013.1 0.0
09/06:00pm WNW 9 13 - - - - 10 - - 23.4 1012.8 0.0
09/05:30pm WNW 10 13 - - - - 10 - - 24.0 1012.5 0.0
09/05:00pm WNW 10 15 - - - - 10 - - 24.7 1012.1 0.0
09/04:30pm WNW 12 15 - - - - 10 - - 25.6 1011.9 0.0
09/04:00pm WNW 11 15 - - - - 10 - - 26.1 1011.9 0.0
09/03:30pm WNW 10 13 - - - - 10 - - 26.2 1011.8 0.0
09/03:00pm WNW 10 14 - - - - 10 - - 26.3 1011.7 0.0
09/02:30pm WNW 9 13 - - - - 10 - - 27.7 1011.9 0.0
09/02:00pm W 10 14 - - - - 10 - - 27.4 1012.2 0.0
09/01:30pm WNW 9 13 - - - - 10 - - 27.6 1012.5 0.0
09/01:00pm W 9 12 - - - - 10 - - 27.8 1013.1 0.0
09/12:30pm WNW 9 13 - - - - 10 - - 29.0 1013.3 0.0
09/12:00pm SW 6 13 - - - - 10 - - 29.6 1013.6 0.0
09/11:30am SSE 9 12 - - - - 10 - - 28.1 1013.9 0.0
09/11:00am SSE 8 11 - - - - 10 - - 28.1 1014.3 0.0
09/10:30am E 7 10 - - - - 10 - - 28.1 1014.7 0.0
09/10:00am ENE 9 12 - - - - 10 - - 27.6 1015.0 0.0
09/09:30am ENE 10 13 - - - - 10 - - 25.9 1015.3 0.0
09/09:00am ENE 9 13 - - - - 10 - - 24.0 1015.4 0.0
09/08:30am ENE 9 15 - - - - 10 - - 22.0 1015.3 0.0
09/08:00am E 7 10 - - - - 10 - - 20.2 1015.2 0.0
09/07:30am ENE 6 8 - - - - 10 - - 18.4 1015.0 0.0
09/07:00am NE 7 9 - - - - 10 - - 16.4 1014.7 0.0
09/06:30am ENE 7 13 - - - - 10 - - 15.8 1014.4 0.0
09/06:00am ENE 7 10 - - - - 10 - - 16.0 1014.0 0.0
09/05:30am ENE 8 11 - - - - 10 - - 16.6 1014.0 0.0
09/05:00am E 8 12 - - - - 10 - - 16.9 1013.6 0.0
09/04:30am E 7 11 - - - - 10 - - 16.7 1013.5 0.0
09/04:00am E 7 10 - - - - 10 - - 15.5 1013.6 0.0
09/03:30am E 7 9 - - - - 10 - - 15.6 1013.7 0.0
09/03:00am ENE 4 6 - - - - 10 - - 15.3 1013.7 0.0
09/02:30am ENE 5 5 - - - - 10 - - 14.6 1013.8 0.0
09/02:00am ENE 5 6 - - - - 10 - - 14.8 1013.9 0.0
09/01:30am NE 5 6 - - - - 10 - - 14.0 1014.1 0.0
09/01:00am NE 3 4 - - - - 10 - - 13.8 1014.3 0.0
09/12:30am NNE 4 5 - - - - 10 - - 14.0 1014.7 0.0
09/12:00am ENE 2 6 - - - - 10 - - 13.5 1014.7 0.0
 
Date/Time
WST
Wind Sea
Height
m
Swell Vis
km
Cloud Weather Temp
°C
Press
hPa
Rain since
9am
mm
Dir  Spd
kts
Gust
kts
Height
m
Period
s
Dir
08/11:30pm CALM 0 0 - - - - 10 - - 14.7 1014.9 0.0
08/11:00pm E 1 5 - - - - 10 - - 15.5 1014.8 0.0
08/10:30pm NNE 4 6 - - - - 10 - - 14.5 1014.8 0.0
08/10:00pm CALM 0 0 - - - - 10 - - 17.1 1014.8 0.0
08/09:30pm S 3 4 - - - - 10 - - 19.1 1014.7 0.0
08/09:00pm SSW 1 4 - - - - 10 - - 19.6 1014.7 0.0
08/08:30pm CALM 0 0 - - - - 10 - - 19.6 1014.5 0.0
08/08:00pm N 4 6 - - - - 10 - - 19.4 1014.3 0.0
08/07:30pm CALM 0 0 - - - - 10 - - 18.8 1013.7 0.0
08/07:00pm SSE 3 5 - - - - 10 - - 22.4 1013.3 0.0
08/06:30pm SSE 4 5 - - - - 10 - - 23.1 1012.9 0.0
08/06:00pm SSE 6 7 - - - - 10 - - 25.1 1012.5 0.0
08/05:30pm SSE 6 8 - - - - 10 - - 26.1 1012.2 0.0
08/05:00pm SSE 6 9 - - - - 10 - - 27.2 1012.2 0.0
08/04:30pm SSE 6 8 - - - - 10 - - 27.5 1012.2 0.0
08/04:00pm SSE 8 9 - - - - 10 - - 27.8 1012.0 0.0
08/03:30pm SSE 7 11 - - - - 10 - - 28.2 1011.9 0.0
08/03:00pm SSE 7 10 - - - - 10 - - 28.0 1012.0 0.0
08/02:30pm SE 8 12 - - - - 10 - - 28.3 1012.3 0.0
08/02:00pm SE 9 13 - - - - 10 - - 27.9 1012.4 0.0
08/01:30pm SE 11 15 - - - - 10 - - 27.5 1012.9 0.0
08/01:00pm SE 11 16 - - - - 10 - - 27.0 1013.3 0.0
08/12:30pm SE 12 17 - - - - 10 - - 26.4 1013.8 0.0
08/12:00pm SE 13 18 - - - - 10 - - 26.7 1014.3 0.0
08/11:30am ESE 13 21 - - - - 10 - - 25.6 1014.9 0.0
08/11:00am ESE 12 18 - - - - 10 - - 25.4 1015.3 0.0
08/10:30am E 13 20 - - - - 10 - - 25.1 1015.8 0.0
08/10:00am ESE 13 19 - - - - 10 - - 23.9 1016.1 0.0
08/09:30am E 16 22 - - - - 10 - - 22.7 1016.2 0.0
08/09:00am E 11 20 - - - - 10 - - 21.6 1016.3 0.0
08/08:30am E 13 22 - - - - 10 - - 20.1 1016.2 0.0
08/08:00am E 10 15 - - - - 10 - - 18.6 1016.2 0.0
08/07:30am ESE 7 10 - - - - 10 - - 17.1 1016.1 0.0
08/07:00am E 6 8 - - - - 10 - - 15.1 1015.9 0.0
08/06:30am E 7 10 - - - - 10 - - 13.6 1015.5 0.0
08/06:00am ESE 7 9 - - - - 10 - - 12.7 1015.2 0.0
08/05:30am ESE 7 7 - - - - 10 - - 12.3 1014.9 0.0
08/05:00am ESE 5 7 - - - - 10 - - 13.1 1014.6 0.0
08/04:30am E 6 7 - - - - 10 - - 13.0 1014.4 0.0
08/04:00am E 6 8 - - - - 10 - - 13.6 1014.4 0.0
08/03:30am ESE 8 10 - - - - 10 - - 14.9 1014.3 0.0
08/03:00am ESE 7 10 - - - - 10 - - 14.9 1014.4 0.0
08/02:30am ESE 7 10 - - - - 10 - - 15.2 1014.5 0.0
08/02:00am E 7 10 - - - - 10 - - 15.2 1014.7 0.0
08/01:30am E 9 12 - - - - 10 - - 17.7 1014.9 0.0
08/01:00am ESE 10 13 - - - - 10 - - 18.8 1015.2 0.0
08/12:30am ESE 10 13 - - - - 10 - - 19.0 1015.3 0.0
08/12:00am ESE 9 13 - - - - 10 - - 19.6 1015.2 0.0
 
Date/Time
WST
Wind Sea
Height
m
Swell Vis
km
Cloud Weather Temp
°C
Press
hPa
Rain since
9am
mm
Dir  Spd
kts
Gust
kts
Height
m
Period
s
Dir
07/11:30pm ESE 10 14 - - - - 10 - - 19.6 1015.4 0.0
07/11:00pm ESE 8 11 - - - - 10 - - 18.9 1015.5 0.0
07/10:30pm ESE 8 10 - - - - 10 - - 18.7 1015.4 0.0
07/10:00pm ESE 8 11 - - - - 10 - - 18.3 1015.4 0.0
07/09:30pm ESE 5 8 - - - - 10 - - 15.9 1015.3 0.0
07/09:00pm ESE 5 6 - - - - 10 - - 16.4 1015.1 0.0
07/08:30pm SE 4 5 - - - - 10 - - 17.5 1015.0 0.0
07/08:00pm NE 3 4 - - - - 10 - - 16.0 1014.8 0.0
07/07:30pm CALM 0 0 - - - - 10 - - 17.3 1014.6 0.0
07/07:00pm SW 2 5 - - - - 10 - - 19.1 1014.3 0.0
07/06:30pm SSW 5 6 - - - - 10 - - 22.5 1013.9 0.0
07/06:00pm SSW 4 6 - - - - 10 - - 23.3 1013.7 0.0
07/05:30pm SSW 5 7 - - - - 10 - - 24.7 1013.3 0.0
07/05:00pm SSE 5 7 - - - - 10 - - 25.9 1013.2 0.0
07/04:30pm SSE 7 8 - - - - 10 - - 26.5 1013.0 0.0
07/04:00pm SSE 7 11 - - - - 10 - - 26.9 1013.1 0.0
07/03:30pm SSE 8 11 - - - - 10 - - 26.9 1013.0 0.0
07/03:00pm SSE 10 13 - - - - 10 - - 26.8 1013.1 0.0
07/02:30pm SSE 10 14 - - - - 10 - - 27.0 1013.1 0.0
07/02:00pm SE 10 15 - - - - 10 - - 26.5 1013.4 0.0
07/01:30pm SE 11 16 - - - - 10 - - 26.3 1013.8 0.0
07/01:00pm SE 12 17 - - - - 10 - - 25.7 1014.2 0.0
07/12:30pm SE 15 19 - - - - 10 - - 25.7 1014.7 0.0
07/12:00pm SE 15 23 - - - - 10 - - 25.2 1015.2 0.0
07/11:30am SE 14 21 - - - - 10 - - 24.5 1015.9 0.0
07/11:00am SE 16 21 - - - - 10 - - 24.0 1016.2 0.0
07/10:30am SE 17 22 - - - - 10 - - 23.5 1016.5 0.0
07/10:00am ESE 16 23 - - - - 10 - - 23.3 1016.8 0.0
07/09:30am ESE 16 24 - - - - 10 - - 22.4 1017.3 0.0
07/09:00am SE 11 16 - - - - 10 - - 18.7 1017.3 0.0
07/08:30am SE 9 15 - - - - 10 - - 17.9 1017.1 0.0
07/08:00am SE 7 10 - - - - 10 - - 15.6 1017.0 0.0
07/07:30am ESE 7 9 - - - - 10 - - 14.6 1016.5 0.0
07/07:00am ESE 6 7 - - - - 10 - - 13.4 1016.3 0.0
07/06:30am SE 6 7 - - - - 10 - - 13.2 1015.9 0.0
07/06:00am ESE 5 6 - - - - 10 - - 12.2 1015.5 0.0
07/05:30am NE 2 5 - - - - 10 - - 10.4 1015.0 0.0
07/05:00am NE 4 5 - - - - 10 - - 10.5 1014.5 0.0
07/04:30am NE 3 3 - - - - 10 - - 11.1 1014.2 0.0
07/04:00am NE 3 4 - - - - 10 - - 12.0 1014.2 0.0
07/03:30am NE 4 5 - - - - 10 - - 11.7 1014.2 0.0
07/03:00am NE 4 5 - - - - 10 - - 13.4 1014.0 0.0
07/02:30am ESE 7 9 - - - - 10 - - 16.4 1014.0 0.0
07/02:00am ESE 9 11 - - - - 10 - - 17.5 1014.0 0.0
07/01:30am SE 12 17 - - - - 10 - - 18.7 1014.1 0.0
07/01:00am SE 14 19 - - - - 10 - - 19.2 1014.2 0.0
07/12:30am SE 14 20 - - - - 10 - - 19.8 1014.3 0.0
07/12:00am SE 12 17 - - - - 10 - - 19.8 1014.6 0.0
 
Date/Time
WST
Wind Sea
Height
m
Swell Vis
km
Cloud Weather Temp
°C
Press
hPa
Rain since
9am
mm
Dir  Spd
kts
Gust
kts
Height
m
Period
s
Dir
06/11:30pm SE 12 20 - - - - 10 - - 19.9 1014.6 0.0
06/11:00pm SE 12 19 - - - - 10 - - 20.5 1014.5 0.0
06/10:30pm SSE 12 17 - - - - 10 - - 20.8 1014.6 0.0
06/10:00pm SSE 12 18 - - - - 10 - - 21.2 1014.4 0.0
06/09:30pm SSE 12 16 - - - - 10 - - 21.6 1014.2 0.0
06/09:00pm SSE 11 15 - - - - 10 - - 21.6 1014.0 0.0
06/08:30pm SSE 10 13 - - - - 10 - - 21.8 1013.9 0.0
06/08:00pm SSE 7 11 - - - - 10 - - 21.9 1013.8 0.0

Other formats

Comma delimited format used in spreadsheet applications
http://www.bom.gov.au/fwo/IDW60701/IDW60701.94203.axf

JavaScript Object Notation format (JSON) in row-major order
http://www.bom.gov.au/fwo/IDW60701/IDW60701.94203.json

Data quality

Most of these data are generated automatically and are frequently updated. Quality checks on data are not normally performed. It is possible for incorrect values to appear. Refer to information at About Latest Weather Observations and please check the disclaimer before using these data.